Ashtabula, OH (44004)

9:14 PM EST on December 10, 2016 (GMT -0500)
Ashtabula Fire Station | | Change Station
Active Advisory: Winter Weather Advisory Active Notice: Public Information Statement

Elev 682 ft 41.87 °N, 80.78 °W | Updated 8 seconds ago

Overcast
Overcast
25.7 °F
Feels Like 26 °F
N
2.7
Wind Variable Wind from South
Gusts 4.9 mph

Today
High -- | Low -- °F
--% Chance of Precip.
Yesterday
High -- | Low -- °F
Precip. -- in
Pressure 30.45 in
Visibility 10.0 miles
Clouds Overcast 3900 ft
Windchill 26 °F
Dew Point 11 °F
Humidity 52%
Rainfall 0.00 in
Snow Depth Not available.
7:40 AM 4:52 PM
Waxing Gibbous, 88% visible
METAR KHZY 110153Z AUTO 22012KT 10SM OVC039 M05/M10 A3041 RMK AO2 SLP311 T10501100
Pressure 30.45 in
Visibility 10.0 miles
Clouds Overcast 3900 ft
Windchill 26 °F
Dew Point 11 °F
Humidity 52%
Rainfall 0.00 in
Snow Depth Not available.
7:40 AM 4:52 PM
Waxing Gibbous, 88% visible
METAR KHZY 110153Z AUTO 22012KT 10SM OVC039 M05/M10 A3041 RMK AO2 SLP311 T10501100

10-Day Weather Forecast

Almanac

Astronomy

Dec. 10, 2016 Rise Set
Actual Time
Civil Twilight
Nautical Twilight
Astronomical Twilight
Moon
Length of Visible Light
Length of Day
Tomorrow will be .
, % of the Moon is Illuminated

Today's Extremes

State Highs State Lows

Community

WunderPhotos

Upload Photos

1,956,690 photos uploaded!

WunderBlog® & News

Nearby

Air Quality

  Air Quality AQ Index Pollutant
Not available.

Snow Depth

Station Depth Elevation

Earthquake Activity

City Distance Mag. Time & Date
Minimum magnitude displayed is 2.5.

Coastal Water Temperatures

Place Temperature

Stations

Nearby Weather Stations

Station Location Temp. Windchill Dew Point Humidity Wind Precip. Elev Updated Type
                   

Watches & Warnings

Winter Weather Advisory
Issued: 6:49 PM EST Dec. 10, 2016 – National Weather Service

... Winter Weather Advisory in effect from 1 am Sunday to 10 am
EST Monday...

The National Weather Service in Cleveland has issued a Winter
Weather Advisory for snow... which is in effect from 1 am Sunday
to 10 am EST Monday.

* Accumulations... snow accumulation 1 to 3 inches late tonight
and 2 to 4 inches Sunday making for a storm total of 3 to 7
inches by late Sunday night.

* Timing... snow will develop late tonight and continue Sunday. The
snow may mix with rain Sunday evening before ending late Sunday
night.

* Impacts... snow covered roads and walkways. Hazardous driving
conditions on untreated roads with reduced visibilities.

* Winds... southwest 5 to 15 mph tonight becoming south. South 10
to 15 mph with gusts up to 25 mph later Sunday.

* Temperatures... in the lower 20s tonight rising to the lower
30s Sunday.

Precautionary/preparedness actions...

A Winter Weather Advisory is issued when snow... sleet... or
freezing rain will cause travel difficulties. Be prepared for
slippery roads and limited visibilities... and use caution while
driving.